createdAt,value
2022-09-17T00:00:54.372Z,232.80
2022-09-17T00:01:54.413Z,236.00
2022-09-17T00:02:54.393Z,250.90
2022-09-17T00:03:54.328Z,290.60
2022-09-17T00:04:54.332Z,302.60
2022-09-17T00:05:54.316Z,324.70
2022-09-17T00:06:54.310Z,317.70
2022-09-17T00:07:54.337Z,297.80
2022-09-17T00:08:54.269Z,290.90
2022-09-17T00:09:54.269Z,287.00
2022-09-17T00:10:54.250Z,288.20
2022-09-17T00:11:54.250Z,281.70
2022-09-17T00:12:54.274Z,277.50
2022-09-17T00:13:54.236Z,255.70
2022-09-17T00:14:54.210Z,244.90
2022-09-17T00:15:54.223Z,221.40
2022-09-17T00:16:54.254Z,217.50
2022-09-17T00:17:54.197Z,217.90
2022-09-17T00:18:54.148Z,224.50
2022-09-17T00:19:54.143Z,219.50
2022-09-17T00:20:54.149Z,223.40
2022-09-17T00:21:54.121Z,219.90
2022-09-17T00:22:54.153Z,231.80
2022-09-17T00:23:54.116Z,232.70
2022-09-17T00:24:54.082Z,240.50
2022-09-17T00:25:54.093Z,242.50
2022-09-17T00:26:54.071Z,236.70
2022-09-17T00:27:54.107Z,218.20
2022-09-17T00:28:54.058Z,222.10
2022-09-17T00:29:54.055Z,239.50
2022-09-17T00:30:54.103Z,229.80
2022-09-17T00:31:54.034Z,216.90
2022-09-17T00:32:54.041Z,213.60
2022-09-17T00:33:53.987Z,210.80
2022-09-17T00:34:53.989Z,213.90
2022-09-17T00:35:53.974Z,218.50
2022-09-17T00:36:53.976Z,232.30
2022-09-17T00:37:54.005Z,236.10
2022-09-17T00:38:53.952Z,233.10
2022-09-17T00:39:54.038Z,236.40
2022-09-17T00:40:53.917Z,235.50
2022-09-17T00:41:53.920Z,223.90
2022-09-17T00:42:53.919Z,222.70
2022-09-17T00:43:53.900Z,241.50
2022-09-17T00:44:53.867Z,224.70
2022-09-17T00:45:53.874Z,216.10
2022-09-17T00:46:53.979Z,212.00
2022-09-17T00:47:53.893Z,207.00
2022-09-17T00:48:53.812Z,215.10
2022-09-17T00:49:53.809Z,219.20
2022-09-17T00:50:53.790Z,228.50
2022-09-17T00:51:58.269Z,221.60
2022-09-17T00:52:54.798Z,227.30
2022-09-17T00:53:53.772Z,234.90
2022-09-17T00:54:53.742Z,241.50
2022-09-17T00:55:53.756Z,225.80
2022-09-17T00:56:53.728Z,257.00
2022-09-17T00:57:53.770Z,241.80
2022-09-17T00:58:53.712Z,223.50
2022-09-17T00:59:53.715Z,232.70
2022-09-17T01:00:53.710Z,237.90
2022-09-17T01:01:53.715Z,252.80
2022-09-17T01:02:53.701Z,226.70
2022-09-17T01:03:53.652Z,228.30
2022-09-17T01:04:53.653Z,227.70
2022-09-17T01:05:53.632Z,230.50
2022-09-17T01:06:53.622Z,229.30
2022-09-17T01:07:53.656Z,208.20
2022-09-17T01:08:53.614Z,225.40
2022-09-17T01:09:53.591Z,229.10
2022-09-17T01:10:53.574Z,224.00
2022-09-17T01:11:53.572Z,205.60
2022-09-17T01:12:53.590Z,195.40
2022-09-17T01:13:53.550Z,194.50
2022-09-17T01:14:53.532Z,204.60
2022-09-17T01:15:53.610Z,182.70
2022-09-17T01:16:53.508Z,201.70
2022-09-17T01:17:53.530Z,175.80
2022-09-17T01:18:53.490Z,180.30
2022-09-17T01:19:53.472Z,179.60
2022-09-17T01:20:53.453Z,179.80
2022-09-17T01:21:53.452Z,176.20
2022-09-17T01:22:53.469Z,194.80
2022-09-17T01:23:53.435Z,172.30
2022-09-17T01:24:53.409Z,174.60
2022-09-17T01:25:53.452Z,187.10
2022-09-17T01:26:53.388Z,193.80
2022-09-17T01:27:53.416Z,172.40
2022-09-17T01:28:53.367Z,187.30
2022-09-17T01:29:53.370Z,167.20
2022-09-17T01:30:53.346Z,173.00
2022-09-17T01:31:53.425Z,170.00
2022-09-17T01:32:53.362Z,175.30
2022-09-17T01:33:53.308Z,170.70
2022-09-17T01:34:53.295Z,175.60
2022-09-17T01:35:53.291Z,172.70
2022-09-17T01:36:53.293Z,169.80
2022-09-17T01:37:53.278Z,170.60
2022-09-17T01:38:53.289Z,177.20
2022-09-17T01:39:53.299Z,169.60
2022-09-17T01:40:53.231Z,170.50
2022-09-17T01:41:53.230Z,169.90
2022-09-17T01:42:53.213Z,169.80
2022-09-17T01:43:53.238Z,166.50
2022-09-17T01:44:53.190Z,168.10
2022-09-17T01:45:53.189Z,176.10
2022-09-17T01:46:53.210Z,172.10
2022-09-17T01:47:53.195Z,168.50
2022-09-17T01:48:53.153Z,166.30
2022-09-17T01:49:53.127Z,169.20
2022-09-17T01:50:53.136Z,170.40
2022-09-17T01:51:53.112Z,170.70
2022-09-17T01:52:53.118Z,168.20
2022-09-17T01:53:53.319Z,172.20
2022-09-17T01:54:53.057Z,169.20
2022-09-17T01:55:53.079Z,172.50
2022-09-17T01:56:53.053Z,174.60
2022-09-17T01:57:53.087Z,171.60
2022-09-17T01:58:53.029Z,171.20
2022-09-17T01:59:53.038Z,170.30
2022-09-17T02:00:53.050Z,167.50
2022-09-17T02:01:53.078Z,164.50
2022-09-17T02:02:53.021Z,158.80
2022-09-17T02:03:53.043Z,158.50
2022-09-17T02:04:52.969Z,151.10
2022-09-17T02:05:52.951Z,151.20
2022-09-17T02:06:52.957Z,159.60
2022-09-17T02:07:52.934Z,165.60
2022-09-17T02:08:52.954Z,164.20
2022-09-17T02:09:52.912Z,153.00
2022-09-17T02:10:52.892Z,166.10
2022-09-17T02:11:52.919Z,164.60
2022-09-17T02:12:52.916Z,158.60
2022-09-17T02:13:52.882Z,163.20
2022-09-17T02:14:52.849Z,158.20
2022-09-17T02:15:52.875Z,162.60
2022-09-17T02:16:52.836Z,161.70
2022-09-17T02:17:52.860Z,158.80
2022-09-17T02:18:52.811Z,163.50
2022-09-17T02:19:52.791Z,160.30
2022-09-17T02:20:52.795Z,167.20
2022-09-17T02:21:52.771Z,153.50
2022-09-17T02:22:52.791Z,163.40
2022-09-17T02:23:52.759Z,159.60
2022-09-17T02:24:52.729Z,165.50
2022-09-17T02:25:52.716Z,156.50
2022-09-17T02:26:52.712Z,153.50
2022-09-17T02:27:52.738Z,159.80
2022-09-17T02:28:52.683Z,158.70
2022-09-17T02:29:52.669Z,156.40
2022-09-17T02:30:52.663Z,158.30
2022-09-17T02:31:52.718Z,163.10
2022-09-17T02:32:52.669Z,150.30
2022-09-17T02:33:52.785Z,156.80
2022-09-17T02:34:52.618Z,151.50
2022-09-17T02:35:52.623Z,154.20
2022-09-17T02:36:52.586Z,144.40
2022-09-17T02:37:52.625Z,151.70
2022-09-17T02:38:52.566Z,145.40
2022-09-17T02:39:52.603Z,146.80
2022-09-17T02:40:52.545Z,143.50
2022-09-17T02:41:52.539Z,154.90
2022-09-17T02:42:52.570Z,156.80
2022-09-17T02:43:52.520Z,155.60
2022-09-17T02:44:52.497Z,148.10
2022-09-17T02:45:52.494Z,151.50
2022-09-17T02:46:52.533Z,154.30
2022-09-17T02:47:52.475Z,150.80
2022-09-17T02:48:52.493Z,157.20
2022-09-17T02:49:52.451Z,146.80
2022-09-17T02:50:52.432Z,157.30
2022-09-17T02:51:52.422Z,150.70
2022-09-17T02:52:52.400Z,153.50
2022-09-17T02:53:52.448Z,156.30
2022-09-17T02:54:52.376Z,147.60
2022-09-17T02:55:52.379Z,139.10
2022-09-17T02:56:52.378Z,145.90
2022-09-17T02:57:52.416Z,149.40
2022-09-17T02:58:52.339Z,148.50
2022-09-17T02:59:52.322Z,152.00
2022-09-17T03:00:52.349Z,148.60
2022-09-17T03:01:52.378Z,149.30
2022-09-17T03:02:52.337Z,148.70
2022-09-17T03:03:52.288Z,145.20
2022-09-17T03:04:52.279Z,149.50
2022-09-17T03:05:52.268Z,146.40
2022-09-17T03:06:52.263Z,139.80
2022-09-17T03:07:52.240Z,136.40
2022-09-17T03:08:52.261Z,134.90
2022-09-17T03:09:52.222Z,133.20
2022-09-17T03:10:52.200Z,133.60
2022-09-17T03:11:52.194Z,141.30
2022-09-17T03:12:52.188Z,142.80
2022-09-17T03:13:52.224Z,133.40
2022-09-17T03:14:52.164Z,134.60
2022-09-17T03:15:52.179Z,136.10
2022-09-17T03:16:52.137Z,133.50
2022-09-17T03:17:53.545Z,135.50
2022-09-17T03:18:52.157Z,133.80
2022-09-17T03:19:52.107Z,140.00
2022-09-17T03:20:52.087Z,137.60
2022-09-17T03:21:52.091Z,136.90
2022-09-17T03:22:52.089Z,135.20
2022-09-17T03:23:52.098Z,138.10
2022-09-17T03:24:52.057Z,137.60
2022-09-17T03:25:52.043Z,136.50
2022-09-17T03:26:52.027Z,138.10
2022-09-17T03:27:52.022Z,136.60
2022-09-17T03:28:52.040Z,139.40
2022-09-17T03:29:51.997Z,142.50
2022-09-17T03:30:51.975Z,137.50
2022-09-17T03:31:51.968Z,136.00
2022-09-17T03:32:51.951Z,139.60
2022-09-17T03:33:51.992Z,137.10
2022-09-17T03:34:51.929Z,136.10
2022-09-17T03:35:51.932Z,140.70
2022-09-17T03:36:51.908Z,139.80
2022-09-17T03:37:51.905Z,140.70
2022-09-17T03:38:51.891Z,141.50
2022-09-17T03:39:52.010Z,143.20
2022-09-17T03:40:51.860Z,140.00
2022-09-17T03:41:51.849Z,138.50
2022-09-17T03:42:51.841Z,137.80
2022-09-17T03:43:51.876Z,139.30
2022-09-17T03:44:51.853Z,139.60
2022-09-17T03:45:51.813Z,143.20
2022-09-17T03:46:51.869Z,141.10
2022-09-17T03:47:51.792Z,138.90
2022-09-17T03:48:51.782Z,141.50
2022-09-17T03:49:51.814Z,137.20
2022-09-17T03:50:51.764Z,140.60
2022-09-17T03:51:51.740Z,135.60
2022-09-17T03:52:51.724Z,138.60
2022-09-17T03:53:51.727Z,138.50
2022-09-17T03:54:51.761Z,136.60
2022-09-17T03:55:51.712Z,136.80
2022-09-17T03:56:51.687Z,140.20
2022-09-17T03:57:51.684Z,137.90
2022-09-17T03:58:51.662Z,139.70
2022-09-17T03:59:51.687Z,134.00
2022-09-17T04:00:51.648Z,135.70
2022-09-17T04:01:51.771Z,134.30
2022-09-17T04:02:51.658Z,139.90
2022-09-17T04:03:51.613Z,141.20
2022-09-17T04:04:51.627Z,132.80
2022-09-17T04:05:51.568Z,138.30
2022-09-17T04:06:51.566Z,135.70
2022-09-17T04:07:51.557Z,135.50
2022-09-17T04:08:51.556Z,135.80
2022-09-17T04:09:51.570Z,133.30
2022-09-17T04:10:51.529Z,133.10
2022-09-17T04:11:51.513Z,134.00
2022-09-17T04:12:51.506Z,135.50
2022-09-17T04:13:51.494Z,139.00
2022-09-17T04:14:51.519Z,145.40
2022-09-17T04:15:51.519Z,143.00
2022-09-17T04:16:52.101Z,135.60
2022-09-17T04:17:51.444Z,138.90
2022-09-17T04:18:51.432Z,138.10
2022-09-17T04:19:51.469Z,139.10
2022-09-17T04:20:51.425Z,132.50
2022-09-17T04:21:51.399Z,144.70
2022-09-17T04:22:51.421Z,142.80
2022-09-17T04:23:51.381Z,155.80
2022-09-17T04:24:51.424Z,146.30
2022-09-17T04:25:51.349Z,159.80
2022-09-17T04:26:51.349Z,146.20
2022-09-17T04:27:51.339Z,149.20
2022-09-17T04:28:51.333Z,148.30
2022-09-17T04:29:51.307Z,145.90
2022-09-17T04:30:51.391Z,151.70
2022-09-17T04:31:51.284Z,149.30
2022-09-17T04:32:51.282Z,160.70
2022-09-17T04:33:51.268Z,167.40
2022-09-17T04:34:51.259Z,154.60
2022-09-17T04:35:51.276Z,151.30
2022-09-17T04:36:51.234Z,148.30
2022-09-17T04:37:51.320Z,153.00
2022-09-17T04:38:51.209Z,156.40
2022-09-17T04:39:51.232Z,164.50
2022-09-17T04:40:51.236Z,178.20
2022-09-17T04:41:51.178Z,175.00
2022-09-17T04:42:51.171Z,191.90
2022-09-17T04:43:51.151Z,200.40
2022-09-17T04:44:51.144Z,205.80
2022-09-17T04:45:51.165Z,215.50
2022-09-17T04:46:51.207Z,204.70
2022-09-17T04:47:51.176Z,211.40
2022-09-17T04:48:51.093Z,212.70
2022-09-17T04:49:51.081Z,211.90
2022-09-17T04:50:51.118Z,212.20
2022-09-17T04:51:51.062Z,213.40
2022-09-17T04:52:51.056Z,213.80
2022-09-17T04:53:51.030Z,211.40
2022-09-17T04:54:51.036Z,227.30
2022-09-17T04:55:51.061Z,218.20
2022-09-17T04:56:51.014Z,215.80
2022-09-17T04:57:51.070Z,217.30
2022-09-17T04:58:50.983Z,217.00
2022-09-17T04:59:50.971Z,214.50
2022-09-17T05:00:51.061Z,211.70
2022-09-17T05:01:51.043Z,211.30
2022-09-17T05:02:50.955Z,216.20
2022-09-17T05:03:50.924Z,207.30
2022-09-17T05:04:50.918Z,212.10
2022-09-17T05:05:50.947Z,203.60
2022-09-17T05:06:50.899Z,206.70
2022-09-17T05:07:50.880Z,215.40
2022-09-17T05:08:50.881Z,225.70
2022-09-17T05:09:50.898Z,218.90
2022-09-17T05:10:50.898Z,235.60
2022-09-17T05:11:50.832Z,241.00
2022-09-17T05:12:50.819Z,255.70
2022-09-17T05:13:50.802Z,272.80
2022-09-17T05:14:50.807Z,272.70
2022-09-17T05:15:50.862Z,272.70
2022-09-17T05:16:50.785Z,264.70
2022-09-17T05:17:50.776Z,244.70
2022-09-17T05:18:50.762Z,240.20
2022-09-17T05:19:50.744Z,231.50
2022-09-17T05:20:50.788Z,248.60
2022-09-17T05:21:50.722Z,239.30
2022-09-17T05:22:50.716Z,260.10
2022-09-17T05:23:50.697Z,238.40
2022-09-17T05:24:50.701Z,240.10
2022-09-17T05:25:50.716Z,259.90
2022-09-17T05:26:50.678Z,254.60
2022-09-17T05:27:50.654Z,250.00
2022-09-17T05:28:50.655Z,262.00
2022-09-17T05:29:50.634Z,269.20
2022-09-17T05:30:50.789Z,249.10
2022-09-17T05:31:50.610Z,279.10
2022-09-17T05:32:50.607Z,279.00
2022-09-17T05:33:50.597Z,264.40
2022-09-17T05:34:50.652Z,237.00
2022-09-17T05:35:50.556Z,223.20
2022-09-17T05:36:50.564Z,226.10
2022-09-17T05:37:50.552Z,215.00
2022-09-17T05:38:50.537Z,209.70
2022-09-17T05:39:50.553Z,197.90
2022-09-17T05:40:50.547Z,184.60
2022-09-17T05:41:50.504Z,177.60
2022-09-17T05:42:50.490Z,186.30
2022-09-17T05:43:50.468Z,165.40
2022-09-17T05:44:50.478Z,157.90
2022-09-17T05:45:50.474Z,141.40
2022-09-17T05:46:50.466Z,141.10
2022-09-17T05:47:50.417Z,152.80
2022-09-17T05:48:50.421Z,152.70
2022-09-17T05:49:50.410Z,166.40
2022-09-17T05:50:50.432Z,172.30
2022-09-17T05:51:50.383Z,185.60
2022-09-17T05:52:50.377Z,192.90
2022-09-17T05:53:50.359Z,195.60
2022-09-17T05:54:50.359Z,201.60
2022-09-17T05:55:50.406Z,201.80
2022-09-17T05:56:50.335Z,198.60
2022-09-17T05:57:50.318Z,192.90
2022-09-17T05:58:50.386Z,182.10
2022-09-17T05:59:50.287Z,175.10
2022-09-17T06:00:50.341Z,174.70
2022-09-17T06:01:50.323Z,169.10
2022-09-17T06:02:50.342Z,185.80
2022-09-17T06:03:50.246Z,226.80
2022-09-17T06:04:50.246Z,222.20
2022-09-17T06:05:50.269Z,215.30
2022-09-17T06:06:50.221Z,202.40
2022-09-17T06:07:50.203Z,225.20
2022-09-17T06:08:50.201Z,231.10
2022-09-17T06:09:50.183Z,236.70
2022-09-17T06:10:50.209Z,237.90
2022-09-17T06:11:50.159Z,231.30
2022-09-17T06:12:50.154Z,221.60
2022-09-17T06:13:50.167Z,206.30
2022-09-17T06:14:50.130Z,178.90
2022-09-17T06:15:50.182Z,154.30
2022-09-17T06:16:50.108Z,114.00
2022-09-17T06:17:50.097Z,112.50
2022-09-17T06:18:50.089Z,93.00
2022-09-17T06:19:50.066Z,84.90
2022-09-17T06:20:50.102Z,89.50
2022-09-17T06:21:50.033Z,87.80
2022-09-17T06:22:50.032Z,97.80
2022-09-17T06:23:50.020Z,103.00
2022-09-17T06:24:50.118Z,94.80
2022-09-17T06:25:50.048Z,101.50
2022-09-17T06:26:50.000Z,121.60
2022-09-17T06:27:49.977Z,114.70
2022-09-17T06:28:50.064Z,119.90
2022-09-17T06:29:49.965Z,134.80
2022-09-17T06:30:49.984Z,116.70
2022-09-17T06:31:49.997Z,113.60
2022-09-17T06:32:49.966Z,105.50
2022-09-17T06:33:49.912Z,111.40
2022-09-17T06:34:49.907Z,111.40
2022-09-17T06:35:49.941Z,107.80
2022-09-17T06:36:49.887Z,116.00
2022-09-17T06:37:49.878Z,115.50
2022-09-17T06:38:49.869Z,126.50
2022-09-17T06:39:49.883Z,122.20
2022-09-17T06:40:49.903Z,115.50
2022-09-17T06:41:49.821Z,124.90
2022-09-17T06:42:49.822Z,132.00
2022-09-17T06:43:49.794Z,126.50
2022-09-17T06:44:49.798Z,133.30
2022-09-17T06:45:49.829Z,146.30
2022-09-17T06:46:49.863Z,152.60
2022-09-17T06:47:49.762Z,148.40
2022-09-17T06:48:49.747Z,139.20
2022-09-17T06:49:49.733Z,12.30
2022-09-17T06:50:49.767Z,14.10
2022-09-17T06:51:49.700Z,15.50
2022-09-17T06:52:49.695Z,16.50
2022-09-17T06:53:49.684Z,15.00
2022-09-17T06:54:49.689Z,54.60
2022-09-17T06:55:49.709Z,73.30
2022-09-17T06:56:49.662Z,68.50
2022-09-17T06:57:49.646Z,62.70
2022-09-17T06:58:49.643Z,62.10
2022-09-17T06:59:49.633Z,49.60
2022-09-17T07:00:49.737Z,45.60
2022-09-17T07:01:49.645Z,54.10
2022-09-17T07:02:49.582Z,47.50
2022-09-17T07:03:49.567Z,41.30
2022-09-17T07:04:49.568Z,62.00
2022-09-17T07:05:49.584Z,73.70
2022-09-17T07:06:49.558Z,75.10
2022-09-17T07:07:49.548Z,69.40
2022-09-17T07:08:49.524Z,68.80
2022-09-17T07:09:49.509Z,66.30
2022-09-17T07:10:49.527Z,79.60
2022-09-17T07:11:49.483Z,66.00
2022-09-17T07:12:50.141Z,78.40
2022-09-17T07:13:49.508Z,83.80
2022-09-17T07:14:49.466Z,96.80
2022-09-17T07:15:49.508Z,101.90
2022-09-17T07:16:49.423Z,113.10
2022-09-17T07:17:49.427Z,116.30
2022-09-17T07:18:49.415Z,133.00
2022-09-17T07:19:49.400Z,151.10
2022-09-17T07:20:49.427Z,151.30
2022-09-17T07:21:49.357Z,167.80
2022-09-17T07:22:49.357Z,164.40
2022-09-17T07:23:49.332Z,169.00
2022-09-17T07:24:49.322Z,175.50
2022-09-17T07:25:49.390Z,174.10
2022-09-17T07:26:49.324Z,196.00
2022-09-17T07:27:49.294Z,172.30
2022-09-17T07:28:49.317Z,189.00
2022-09-17T07:29:49.282Z,195.80
2022-09-17T07:30:49.365Z,188.70
2022-09-17T07:31:49.302Z,175.30
2022-09-17T07:32:49.244Z,165.60
2022-09-17T07:33:49.246Z,147.30
2022-09-17T07:34:49.209Z,145.00
2022-09-17T07:35:49.247Z,139.90
2022-09-17T07:36:49.205Z,123.70
2022-09-17T07:37:49.185Z,105.60
2022-09-17T07:38:49.217Z,93.20
2022-09-17T07:39:49.293Z,101.00
2022-09-17T07:40:49.194Z,113.00
2022-09-17T07:41:49.147Z,109.50
2022-09-17T07:42:49.160Z,122.50
2022-09-17T07:43:49.123Z,131.70
2022-09-17T07:44:49.124Z,128.60
2022-09-17T07:45:49.141Z,124.60
2022-09-17T07:46:49.158Z,120.00
2022-09-17T07:47:49.075Z,124.10
2022-09-17T07:48:49.080Z,132.60
2022-09-17T07:49:49.063Z,125.80
2022-09-17T07:50:49.090Z,133.10
2022-09-17T07:51:49.047Z,139.40
2022-09-17T07:52:49.029Z,126.90
2022-09-17T07:53:49.091Z,106.90
2022-09-17T07:54:48.993Z,89.30
2022-09-17T07:55:49.016Z,77.60
2022-09-17T07:56:48.962Z,79.50
2022-09-17T07:57:48.964Z,86.00
2022-09-17T07:58:48.964Z,85.10
2022-09-17T07:59:48.943Z,95.20
2022-09-17T08:00:48.982Z,112.20
2022-09-17T08:01:49.021Z,134.70
2022-09-17T08:02:48.973Z,149.80
2022-09-17T08:03:48.882Z,144.00
2022-09-17T08:04:48.882Z,122.40
2022-09-17T08:05:48.910Z,157.00
2022-09-17T08:06:48.866Z,150.80
2022-09-17T08:07:48.880Z,108.10
2022-09-17T08:08:48.858Z,81.10
2022-09-17T08:09:48.833Z,73.80
2022-09-17T08:10:48.894Z,29.80
2022-09-17T08:11:55.758Z,11.70
2022-09-17T08:12:49.816Z,32.20
2022-09-17T08:13:48.781Z,32.60
2022-09-17T08:14:48.765Z,62.70
2022-09-17T08:15:48.797Z,61.30
2022-09-17T08:16:48.800Z,44.00
2022-09-17T08:17:48.739Z,58.00
2022-09-17T08:18:48.731Z,39.00
2022-09-17T08:19:48.725Z,63.80
2022-09-17T08:20:48.715Z,88.00
2022-09-17T08:21:48.712Z,62.20
2022-09-17T08:22:50.340Z,67.00
2022-09-17T08:23:48.715Z,77.10
2022-09-17T08:24:48.658Z,56.10
2022-09-17T08:25:48.631Z,68.00
2022-09-17T08:26:48.651Z,62.40
2022-09-17T08:27:48.604Z,53.50
2022-09-17T08:28:48.587Z,78.80
2022-09-17T08:29:48.603Z,43.20
2022-09-17T08:30:48.587Z,55.90
2022-09-17T08:31:48.686Z,167.60
2022-09-17T08:32:48.560Z,49.10
2022-09-17T08:33:48.543Z,45.60
2022-09-17T08:34:48.536Z,67.60
2022-09-17T08:35:48.518Z,34.70
2022-09-17T08:36:48.537Z,31.80
2022-09-17T08:37:48.510Z,40.00
2022-09-17T08:38:48.585Z,23.60
2022-09-17T08:39:48.488Z,33.60
2022-09-17T08:40:48.485Z,49.50
2022-09-17T08:41:48.488Z,516.60
2022-09-17T08:42:48.444Z,1032.30
2022-09-17T08:43:48.443Z,303.80
2022-09-17T08:44:51.619Z,1182.70
2022-09-17T08:45:48.431Z,816.40
2022-09-17T08:46:48.503Z,1865.10
2022-09-17T08:47:48.423Z,1130.70
2022-09-17T08:48:48.379Z,1999.90
2022-09-17T08:49:48.389Z,1999.90
2022-09-17T08:50:48.388Z,1999.90
2022-09-17T08:51:48.405Z,1999.90
2022-09-17T08:52:48.339Z,1999.90
2022-09-17T08:53:48.318Z,1999.90
2022-09-17T08:54:48.326Z,1999.90
2022-09-17T08:55:48.308Z,1999.90
2022-09-17T08:56:48.327Z,1999.90
2022-09-17T08:57:48.271Z,1999.90
2022-09-17T08:58:48.249Z,1999.90
2022-09-17T08:59:48.244Z,1999.90
2022-09-17T09:00:48.242Z,1999.90
2022-09-17T09:01:48.316Z,1999.90
2022-09-17T09:02:48.289Z,1999.90
2022-09-17T09:03:48.232Z,1132.30
2022-09-17T09:04:48.207Z,337.80
2022-09-17T09:05:48.219Z,20.10
2022-09-17T09:06:48.207Z,46.90
2022-09-17T09:07:48.169Z,21.70
2022-09-17T09:08:48.157Z,26.60
2022-09-17T09:09:48.146Z,26.10
2022-09-17T09:10:48.142Z,20.10
2022-09-17T09:11:48.167Z,34.10
2022-09-17T09:12:48.112Z,770.10
2022-09-17T09:13:48.109Z,766.70
2022-09-17T09:14:48.082Z,1999.90
2022-09-17T09:15:48.138Z,1999.90
2022-09-17T09:16:48.109Z,1999.90
2022-09-17T09:17:48.068Z,1999.90
2022-09-17T09:18:48.045Z,1999.90
2022-09-17T09:19:48.041Z,1999.90
2022-09-17T09:20:48.015Z,1999.90
2022-09-17T09:21:48.059Z,1999.90
2022-09-17T09:22:48.002Z,1999.90
2022-09-17T09:23:47.983Z,1999.90
2022-09-17T09:24:47.981Z,1999.90
2022-09-17T09:25:47.970Z,1999.90
2022-09-17T09:26:47.983Z,1999.90
2022-09-17T09:27:47.946Z,1999.90
2022-09-17T09:28:47.941Z,1999.90
2022-09-17T09:29:47.911Z,1999.90
2022-09-17T09:30:47.897Z,1999.90
2022-09-17T09:31:47.961Z,1999.90
2022-09-17T09:32:47.887Z,1999.90
2022-09-17T09:33:48.209Z,1999.90
2022-09-17T09:34:47.857Z,1999.90
2022-09-17T09:35:47.898Z,1999.90
2022-09-17T09:36:47.888Z,1999.90
2022-09-17T09:37:47.829Z,1999.90
2022-09-17T09:38:47.822Z,1999.90
2022-09-17T09:39:47.808Z,1999.90
2022-09-17T09:40:47.799Z,1999.90
2022-09-17T09:41:47.840Z,1999.90
2022-09-17T09:42:47.747Z,1999.90
2022-09-17T09:44:04.421Z,1999.90
2022-09-17T09:44:48.732Z,1999.90
2022-09-17T09:45:47.751Z,1999.90
2022-09-17T09:46:47.828Z,1999.90
2022-09-17T09:47:47.732Z,1999.90
2022-09-17T09:48:47.701Z,1999.90
2022-09-17T09:49:47.704Z,1999.90
2022-09-17T09:51:06.611Z,1999.90
2022-09-17T09:51:48.712Z,1999.90
2022-09-17T09:52:47.660Z,1999.90
2022-09-17T09:53:47.652Z,760.60
2022-09-17T09:54:47.637Z,510.50
2022-09-17T09:55:47.628Z,95.10
2022-09-17T09:56:47.644Z,798.30
2022-09-17T09:57:47.621Z,1715.70
2022-09-17T09:58:47.606Z,1183.10
2022-09-17T09:59:47.581Z,951.10
2022-09-17T10:00:47.560Z,1955.50
2022-09-17T10:01:47.712Z,1348.00
2022-09-17T10:02:47.606Z,478.40
2022-09-17T10:03:47.519Z,526.60
2022-09-17T10:04:50.276Z,267.90
2022-09-17T10:05:48.502Z,1140.80
2022-09-17T10:06:47.547Z,1553.30
2022-09-17T10:07:47.502Z,1999.90
2022-09-17T10:08:47.529Z,1999.90
2022-09-17T10:09:47.481Z,1999.90
2022-09-17T10:10:47.467Z,1999.90
2022-09-17T10:11:47.491Z,1999.90
2022-09-17T10:12:47.440Z,1999.90
2022-09-17T10:13:47.424Z,1999.90
2022-09-17T10:14:47.395Z,1999.90
2022-09-17T10:15:47.444Z,1999.90
2022-09-17T10:16:47.425Z,1360.80
2022-09-17T10:17:47.386Z,1999.90
2022-09-17T10:18:47.361Z,1999.90
2022-09-17T10:19:47.361Z,1999.90
2022-09-17T10:20:47.342Z,1999.90
2022-09-17T10:21:47.395Z,1999.90
2022-09-17T10:22:47.322Z,1999.90
2022-09-17T10:23:47.329Z,1999.90
2022-09-17T10:24:47.301Z,1999.90
2022-09-17T10:25:47.311Z,1999.90
2022-09-17T10:26:47.328Z,1999.90
2022-09-17T10:27:47.267Z,1999.90
2022-09-17T10:28:47.277Z,1999.90
2022-09-17T10:29:47.243Z,1999.90
2022-09-17T10:30:47.261Z,1999.90
2022-09-17T10:31:47.411Z,1677.50
2022-09-17T10:32:47.192Z,477.80
2022-09-17T10:33:47.200Z,41.00
2022-09-17T10:34:47.162Z,49.80
2022-09-17T10:35:47.184Z,37.60
2022-09-17T10:36:47.199Z,31.40
2022-09-17T10:37:47.172Z,31.90
2022-09-17T10:38:47.192Z,29.20
2022-09-17T10:39:47.156Z,41.10
2022-09-17T10:40:47.124Z,25.40
2022-09-17T10:41:47.156Z,29.00
2022-09-17T10:42:47.102Z,45.30
2022-09-17T10:43:47.087Z,1999.90
2022-09-17T10:44:47.083Z,1999.90
2022-09-17T10:45:47.072Z,1999.90
2022-09-17T10:46:47.146Z,1999.90
2022-09-17T10:47:47.062Z,1999.90
2022-09-17T10:48:47.031Z,1484.40
2022-09-17T10:49:47.038Z,91.90
2022-09-17T10:50:47.004Z,332.10
2022-09-17T10:51:47.035Z,666.70
2022-09-17T10:52:46.978Z,107.20
2022-09-17T10:53:46.990Z,24.80
2022-09-17T10:54:46.963Z,29.80
2022-09-17T10:55:46.978Z,31.30
2022-09-17T10:56:46.942Z,46.20
2022-09-17T10:57:46.925Z,47.50
2022-09-17T10:58:46.914Z,38.50
2022-09-17T10:59:46.906Z,62.70
2022-09-17T11:00:46.924Z,77.40
2022-09-17T11:01:46.928Z,73.90
2022-09-17T11:02:46.959Z,37.70
2022-09-17T11:03:46.869Z,35.30
2022-09-17T11:04:46.841Z,48.40
2022-09-17T11:05:46.870Z,67.60
2022-09-17T11:06:46.833Z,65.10
2022-09-17T11:07:46.826Z,50.70
2022-09-17T11:08:46.817Z,53.10
2022-09-17T11:09:46.803Z,49.00
2022-09-17T11:10:46.828Z,32.10
2022-09-17T11:11:46.785Z,26.90
2022-09-17T11:12:46.762Z,15.20
2022-09-17T11:13:46.748Z,19.30
2022-09-17T11:14:46.740Z,22.50
2022-09-17T11:15:50.798Z,23.30
2022-09-17T11:16:47.755Z,458.40
2022-09-17T11:17:46.700Z,1999.90
2022-09-17T11:18:46.670Z,1999.90
2022-09-17T11:19:46.707Z,1999.90
2022-09-17T11:20:46.724Z,1999.90
2022-09-17T11:21:46.660Z,1999.90
2022-09-17T11:22:46.644Z,1999.90
2022-09-17T11:23:46.720Z,1999.90
2022-09-17T11:24:46.637Z,1999.90
2022-09-17T11:25:46.656Z,1999.90
2022-09-17T11:26:46.609Z,1284.30
2022-09-17T11:27:46.601Z,970.40
2022-09-17T11:28:46.583Z,698.90
2022-09-17T11:29:46.560Z,1140.00
2022-09-17T11:30:46.593Z,1862.20
2022-09-17T11:31:46.598Z,35.10
2022-09-17T11:32:46.541Z,8.50
2022-09-17T11:33:46.538Z,150.70
2022-09-17T11:34:46.554Z,204.70
2022-09-17T11:35:46.541Z,244.70
2022-09-17T11:36:46.475Z,34.50
2022-09-17T11:37:46.476Z,11.20
2022-09-17T11:38:46.559Z,11.50
2022-09-17T11:39:46.470Z,645.90
2022-09-17T11:40:46.497Z,1164.50
2022-09-17T11:41:46.446Z,11.20
2022-09-17T11:42:46.424Z,11.40
2022-09-17T11:43:46.422Z,7.30
2022-09-17T11:44:46.405Z,9.90
2022-09-17T11:45:46.434Z,8.00
2022-09-17T11:46:46.452Z,8.20
2022-09-17T11:47:46.368Z,9.00
2022-09-17T11:48:46.354Z,8.70
2022-09-17T11:49:46.347Z,8.70
2022-09-17T11:50:46.392Z,9.50
2022-09-17T11:51:46.322Z,9.70
2022-09-17T11:52:46.354Z,9.30
2022-09-17T11:53:46.374Z,10.20
2022-09-17T11:54:46.301Z,10.00
2022-09-17T11:55:46.327Z,10.20
2022-09-17T11:56:46.268Z,13.50
2022-09-17T11:57:46.277Z,11.30
2022-09-17T11:58:46.243Z,13.60
2022-09-17T11:59:46.227Z,12.40
2022-09-17T12:00:46.267Z,15.60
2022-09-17T12:01:46.265Z,18.10
2022-09-17T12:02:46.320Z,12.60
2022-09-17T12:03:46.223Z,12.80
2022-09-17T12:04:46.179Z,14.10
2022-09-17T12:05:46.217Z,16.50
2022-09-17T12:06:46.156Z,15.50
2022-09-17T12:07:46.139Z,15.00
2022-09-17T12:08:46.122Z,109.70
2022-09-17T12:09:46.115Z,172.40
2022-09-17T12:10:46.143Z,260.40
2022-09-17T12:11:46.107Z,422.50
2022-09-17T12:12:50.036Z,843.20
2022-09-17T12:13:46.082Z,1032.40
2022-09-17T12:14:46.081Z,1999.90
2022-09-17T12:15:49.738Z,1999.90
2022-09-17T12:16:47.068Z,1999.90
2022-09-17T12:17:46.047Z,1999.90
2022-09-17T12:18:46.023Z,1999.90
2022-09-17T12:19:46.036Z,1999.90
2022-09-17T12:20:46.047Z,1999.90
2022-09-17T12:21:46.015Z,1999.90
2022-09-17T12:22:45.997Z,1999.90
2022-09-17T12:23:45.961Z,1999.90
2022-09-17T12:24:45.961Z,1999.90
2022-09-17T12:25:45.990Z,1999.90
2022-09-17T12:26:45.943Z,1999.90
2022-09-17T12:27:45.938Z,1999.90
2022-09-17T12:28:45.926Z,1999.90
2022-09-17T12:29:45.908Z,1999.90